Havasu City, Arizona
Current Conditions -  °F | °C
As of 9:15 PM on Wednesday 28 Jan 2015 (Local Time) from KHII Reporting Station
Clear Clear  
Wind Chill: 64°   Ceiling: Unl
Heat Index: 64°   Visibility: 10mi
Dew Point: 48°   Wind: 9mph
Humidity: 56%   Direction: 330°NNW
Pressure: 30.13"   Gusts: NA
Location:  34.6022°N, 113.772°W
Report Text: KHII 290415Z AUTO 33008KT 10SM CLR 18/09 A3013 RMK AO2
Loading
Personal Weather Stations






























Interactive Weather Map New forecast layout! Learn more

10-Day Weather Forecast

Advertisements
Track Severe Weather on mobile